createdAt,value
2022-11-27T00:00:36.749Z,101408.84
2022-11-27T00:03:05.818Z,101413.31
2022-11-27T00:05:36.544Z,101412.31
2022-11-27T00:08:04.335Z,101422.09
2022-11-27T00:10:32.597Z,101414.19
2022-11-27T00:13:05.205Z,101414.22
2022-11-27T00:15:32.915Z,101417.78
2022-11-27T00:18:06.010Z,101428.44
2022-11-27T00:20:33.447Z,101418.81
2022-11-27T00:23:01.362Z,101422.41
2022-11-27T00:25:30.560Z,101419.03
2022-11-27T00:27:57.991Z,101423.50
2022-11-27T00:30:25.580Z,101427.03
2022-11-27T00:32:53.044Z,101423.56
2022-11-27T00:35:20.509Z,101423.56
2022-11-27T00:37:55.334Z,101428.88
2022-11-27T00:40:25.954Z,101428.97
2022-11-27T00:42:53.894Z,101421.97
2022-11-27T00:45:22.156Z,101423.75
2022-11-27T00:47:49.820Z,101425.53
2022-11-27T00:50:17.728Z,101427.38
2022-11-27T00:52:51.075Z,101419.34
2022-11-27T00:55:21.045Z,101425.59
2022-11-27T00:57:54.441Z,101426.47
2022-11-27T01:00:23.592Z,101418.47
2022-11-27T01:02:51.409Z,101404.25
2022-11-27T01:05:19.940Z,101421.91
2022-11-27T01:07:53.723Z,101421.16
2022-11-27T01:10:24.041Z,101417.53
2022-11-27T01:12:54.917Z,101423.72
2022-11-27T01:15:24.770Z,101413.94
2022-11-27T01:17:52.516Z,101423.66
2022-11-27T01:20:20.004Z,101419.19
2022-11-27T01:22:51.268Z,101421.16
2022-11-27T01:25:26.627Z,101416.75
2022-11-27T01:27:54.708Z,101419.50
2022-11-27T01:30:22.071Z,101418.53
2022-11-27T01:32:49.522Z,101413.25
2022-11-27T01:35:17.700Z,101415.91
2022-11-27T01:37:45.399Z,101415.03
2022-11-27T01:40:13.054Z,101420.38
2022-11-27T01:42:40.582Z,101419.50
2022-11-27T01:45:10.289Z,101413.47
2022-11-27T01:47:43.770Z,101419.59
2022-11-27T01:50:15.795Z,101417.75
2022-11-27T01:52:48.966Z,101429.31
2022-11-27T01:55:22.085Z,101425.75
2022-11-27T01:57:55.277Z,101430.13
2022-11-27T02:00:23.286Z,101423.94
2022-11-27T02:02:52.033Z,101431.94
2022-11-27T02:05:23.541Z,101429.25
2022-11-27T02:07:52.723Z,101426.53
2022-11-27T02:10:36.406Z,101434.53
2022-11-27T02:13:14.466Z,101432.78
2022-11-27T02:16:19.038Z,101429.31
2022-11-27T02:19:07.879Z,101431.06
2022-11-27T02:21:49.583Z,101426.66
2022-11-27T02:24:45.777Z,101439.03
2022-11-27T02:27:31.786Z,101434.66
2022-11-27T02:30:01.585Z,101438.16
2022-11-27T02:32:39.906Z,101443.47
2022-11-27T02:35:14.019Z,101447.00
2022-11-27T02:38:13.739Z,101457.59
2022-11-27T02:40:48.996Z,101444.28
2022-11-27T02:43:20.729Z,101453.13
2022-11-27T02:45:50.420Z,101450.53
2022-11-27T02:48:21.751Z,101446.88
2022-11-27T02:50:50.774Z,101449.44
2022-11-27T02:53:21.799Z,101457.56
2022-11-27T02:55:50.539Z,101454.06
2022-11-27T02:58:22.661Z,101461.25
2022-11-27T03:00:50.359Z,101459.47
2022-11-27T03:03:21.775Z,101457.66
2022-11-27T03:05:51.066Z,101449.59
2022-11-27T03:08:36.929Z,101446.03
2022-11-27T03:11:12.831Z,101455.84
2022-11-27T03:13:47.439Z,101442.63
2022-11-27T03:16:32.669Z,101452.25
2022-11-27T03:19:17.324Z,101453.25
2022-11-27T03:21:52.430Z,101459.47
2022-11-27T03:24:19.846Z,101458.50
2022-11-27T03:26:47.885Z,101454.06
2022-11-27T03:29:19.213Z,101454.13
2022-11-27T03:31:46.621Z,101461.13
2022-11-27T03:34:14.161Z,101454.06
2022-11-27T03:36:41.656Z,101455.78
2022-11-27T03:39:09.453Z,101458.38
2022-11-27T03:41:55.171Z,101460.22
2022-11-27T03:44:47.582Z,101462.97
2022-11-27T03:47:26.829Z,101460.34
2022-11-27T03:50:21.593Z,101464.69
2022-11-27T03:53:13.199Z,101474.41
2022-11-27T03:55:55.567Z,101466.44
2022-11-27T03:58:41.748Z,101466.44
2022-11-27T04:01:13.502Z,101458.44
2022-11-27T04:03:41.495Z,101459.47
2022-11-27T04:06:08.953Z,101447.94
2022-11-27T04:08:36.851Z,101451.59
2022-11-27T04:11:04.529Z,101461.31
2022-11-27T04:13:32.297Z,101456.00
2022-11-27T04:16:02.464Z,101460.38
2022-11-27T04:18:30.111Z,101460.34
2022-11-27T04:20:57.488Z,101456.00
2022-11-27T04:23:25.031Z,101457.81
2022-11-27T04:25:52.852Z,101461.31
2022-11-27T04:28:20.340Z,101465.75
2022-11-27T04:30:52.047Z,101457.78
2022-11-27T04:33:19.616Z,101468.28
2022-11-27T04:35:54.129Z,101470.97
2022-11-27T04:38:24.796Z,101466.56
2022-11-27T04:40:53.447Z,101466.44
2022-11-27T04:43:22.853Z,101469.88
2022-11-27T04:45:50.228Z,101466.41
2022-11-27T04:48:17.929Z,101457.56
2022-11-27T04:50:46.052Z,101455.78
2022-11-27T04:53:13.452Z,101461.97
2022-11-27T04:55:40.924Z,101451.34
2022-11-27T04:58:10.250Z,101462.75
2022-11-27T05:00:37.725Z,101465.41
2022-11-27T05:03:11.088Z,101461.09
2022-11-27T05:05:38.657Z,101453.13
2022-11-27T05:08:06.853Z,101455.72
2022-11-27T05:10:34.310Z,101469.94
2022-11-27T05:13:01.906Z,101465.41
2022-11-27T05:15:29.342Z,101475.25
2022-11-27T05:17:56.781Z,101476.94
2022-11-27T05:20:24.825Z,101477.84
2022-11-27T05:22:52.503Z,101486.59
2022-11-27T05:25:20.416Z,101487.53
2022-11-27T05:27:47.991Z,101485.69
2022-11-27T05:30:18.132Z,101491.88
2022-11-27T05:32:47.919Z,101495.44
2022-11-27T05:35:15.359Z,101495.38
2022-11-27T05:37:42.722Z,101499.75
2022-11-27T05:40:16.091Z,101495.28
2022-11-27T05:42:45.728Z,101496.16
2022-11-27T05:45:13.555Z,101502.34
2022-11-27T05:47:41.223Z,101498.75
2022-11-27T05:50:10.916Z,101509.34
2022-11-27T05:52:38.340Z,101504.13
2022-11-27T05:55:06.551Z,101512.97
2022-11-27T05:57:33.974Z,101514.66
2022-11-27T06:00:01.479Z,101508.38
2022-11-27T06:02:30.361Z,101512.78
2022-11-27T06:04:57.899Z,101506.56
2022-11-27T06:07:25.392Z,101514.47
2022-11-27T06:09:53.934Z,101518.06
2022-11-27T06:12:21.435Z,101513.56
2022-11-27T06:14:49.966Z,101518.00
2022-11-27T06:17:17.263Z,101523.28
2022-11-27T06:19:45.367Z,101516.13
2022-11-27T06:22:12.747Z,101512.59
2022-11-27T06:24:40.436Z,101517.00
2022-11-27T06:27:08.613Z,101519.66
2022-11-27T06:29:37.963Z,101524.03
2022-11-27T06:32:05.905Z,101523.19
2022-11-27T06:34:33.260Z,101533.88
2022-11-27T06:37:00.752Z,101542.78
2022-11-27T06:39:28.265Z,101546.19
2022-11-27T06:41:56.022Z,101545.31
2022-11-27T06:44:27.134Z,101552.38
2022-11-27T06:46:54.851Z,101547.84
2022-11-27T06:49:26.390Z,101546.97
2022-11-27T06:51:54.032Z,101545.19
2022-11-27T06:54:21.575Z,101550.50
2022-11-27T06:56:50.800Z,101552.13
2022-11-27T06:59:19.226Z,101545.81
2022-11-27T07:01:48.539Z,101550.34
2022-11-27T07:04:17.888Z,101554.78
2022-11-27T07:06:49.568Z,101563.56
2022-11-27T07:09:20.930Z,101559.84
2022-11-27T07:11:48.914Z,101559.81
2022-11-27T07:14:16.958Z,101564.22
2022-11-27T07:19:30.372Z,101572.19
2022-11-27T07:22:16.954Z,101565.94
2022-11-27T07:24:46.555Z,101565.09
2022-11-27T07:27:14.834Z,101568.44
2022-11-27T07:29:42.341Z,101564.91
2022-11-27T07:32:14.921Z,101572.75
2022-11-27T07:34:43.038Z,101574.34
2022-11-27T07:37:11.274Z,101571.63
2022-11-27T07:40:01.449Z,101575.94
2022-11-27T07:42:37.933Z,101579.44
2022-11-27T07:45:12.061Z,101580.22
2022-11-27T07:47:47.230Z,101583.66
2022-11-27T07:50:24.336Z,101581.06
2022-11-27T07:52:57.075Z,101588.03
2022-11-27T07:55:24.862Z,101588.75
2022-11-27T07:57:53.113Z,101591.50
2022-11-27T08:00:24.030Z,101590.47
2022-11-27T08:02:54.260Z,101585.94
2022-11-27T08:05:26.517Z,101589.38
2022-11-27T08:07:54.829Z,101596.41
2022-11-27T08:10:26.229Z,101583.84
2022-11-27T08:12:57.085Z,101586.41
2022-11-27T08:15:27.234Z,101588.16
2022-11-27T08:20:56.484Z,101594.38
2022-11-27T08:23:25.318Z,101594.38
2022-11-27T08:26:14.671Z,101595.97
2022-11-27T08:32:11.573Z,101596.88
2022-11-27T08:34:40.621Z,101590.72
2022-11-27T08:37:10.118Z,101581.84
2022-11-27T08:39:39.421Z,101584.28
2022-11-27T08:42:06.773Z,101581.44
2022-11-27T08:44:34.399Z,101583.25
2022-11-27T08:47:03.540Z,101577.16
2022-11-27T08:49:33.464Z,101582.38
2022-11-27T08:52:01.375Z,101582.16
2022-11-27T08:54:29.179Z,101575.91
2022-11-27T08:56:56.647Z,101582.09
2022-11-27T08:59:25.205Z,101576.84
2022-11-27T09:01:56.079Z,101579.50
2022-11-27T09:04:23.541Z,101573.31
2022-11-27T22:41:18.999Z,101793.75
2022-11-27T22:44:14.555Z,101800.84
2022-11-27T22:46:46.690Z,101799.84
2022-11-27T22:49:18.419Z,101798.06
2022-11-27T22:51:53.047Z,101797.19
2022-11-27T22:54:29.637Z,101784.88
2022-11-27T22:57:07.692Z,101799.97
2022-11-27T22:59:53.765Z,101801.00
2022-11-27T23:02:30.839Z,101794.81
2022-11-27T23:05:02.247Z,101801.88
2022-11-27T23:07:33.957Z,101807.19
2022-11-27T23:10:04.468Z,101813.41
2022-11-27T23:12:36.933Z,101806.31
2022-11-27T23:15:08.208Z,101798.34
2022-11-27T23:17:39.356Z,101804.53
2022-11-27T23:20:25.706Z,101802.81
2022-11-27T23:22:53.939Z,101813.41
2022-11-27T23:28:30.915Z,101803.75
2022-11-27T23:31:28.923Z,101805.56
2022-11-27T23:33:56.541Z,101817.09
2022-11-27T23:36:35.193Z,101809.16
2022-11-27T23:42:02.572Z,101816.28
2022-11-27T23:44:35.725Z,101816.31
2022-11-27T23:47:14.039Z,101817.22
2022-11-27T23:49:42.504Z,101819.00
2022-11-27T23:55:04.304Z,101810.81
2022-11-27T23:57:37.309Z,101817.16
